Time,TemperatureF,DewpointF,PressureIn,WindDirection,WindDirectionDegrees,WindSpeedMPH,WindSpeedGustMPH,Humidity,HourlyPrecipIn,Conditions,Clouds,dailyrainin,SoftwareType,DateUTC
2013-01-18 00:02:00,36.0,35.0,-100.00,South,174,2.0,-999.0,98,0.00,,,-99.99,,2013-01-18 08:02:00,
2013-01-18 00:11:00,36.0,35.0,-100.00,South,174,2.0,-999.0,98,0.00,,,-99.99,,2013-01-18 08:11:00,
2013-01-18 00:22:00,36.0,35.0,-100.00,South,174,2.0,-999.0,98,0.00,,,-99.99,,2013-01-18 08:22:00,
2013-01-18 00:30:00,35.0,34.0,-100.00,South,170,2.0,-999.0,98,0.00,,,-99.99,,2013-01-18 08:30:00,
2013-01-18 00:53:00,35.0,34.0,-100.00,South,170,2.0,-999.0,98,0.00,,,-99.99,,2013-01-18 08:53:00,
2013-01-18 01:02:00,35.0,34.0,-100.00,South,170,2.0,-999.0,98,0.00,,,-99.99,,2013-01-18 09:02:00,
2013-01-18 01:12:00,35.0,34.0,-100.00,South,170,2.0,-999.0,98,0.00,,,-99.99,,2013-01-18 09:12:00,
2013-01-18 01:22:00,35.0,34.0,-100.00,South,170,2.0,-999.0,98,0.00,,,-99.99,,2013-01-18 09:22:00,
2013-01-18 01:30:00,34.0,33.0,-100.00,SSW,194,2.0,-999.0,98,0.00,,,-99.99,,2013-01-18 09:30:00,
2013-01-18 01:52:00,34.0,33.0,-100.00,SSW,194,2.0,-999.0,98,0.00,,,-99.99,,2013-01-18 09:52:00,
2013-01-18 02:02:00,34.0,33.0,-100.00,SSW,194,2.0,-999.0,98,0.00,,,-99.99,,2013-01-18 10:02:00,
2013-01-18 02:12:00,34.0,33.0,-100.00,SSW,194,2.0,-999.0,98,0.00,,,-99.99,,2013-01-18 10:12:00,
2013-01-18 02:22:00,34.0,33.0,-100.00,SSW,194,2.0,-999.0,98,0.00,,,-99.99,,2013-01-18 10:22:00,
2013-01-18 02:30:00,34.0,33.0,-100.00,South,183,3.0,-999.0,98,0.00,,,-99.99,,2013-01-18 10:30:00,
2013-01-18 02:52:00,34.0,33.0,-100.00,South,183,3.0,-999.0,98,0.00,,,-99.99,,2013-01-18 10:52:00,
2013-01-18 03:02:00,34.0,33.0,-100.00,South,183,3.0,-999.0,98,0.00,,,-99.99,,2013-01-18 11:02:00,
2013-01-18 03:12:00,34.0,33.0,-100.00,South,183,3.0,-999.0,98,0.00,,,-99.99,,2013-01-18 11:12:00,
2013-01-18 03:22:00,34.0,33.0,-100.00,South,183,3.0,-999.0,98,0.00,,,-99.99,,2013-01-18 11:22:00,
2013-01-18 03:30:00,35.0,34.0,-100.00,SSW,200,2.0,-999.0,98,0.00,,,-99.99,,2013-01-18 11:30:00,
2013-01-18 03:53:00,35.0,34.0,-100.00,SSW,200,2.0,-999.0,98,0.00,,,-99.99,,2013-01-18 11:53:00,
2013-01-18 04:02:00,35.0,34.0,-100.00,SSW,200,2.0,-999.0,98,0.00,,,-99.99,,2013-01-18 12:02:00,
2013-01-18 04:12:00,35.0,34.0,-100.00,SSW,200,2.0,-999.0,98,0.00,,,-99.99,,2013-01-18 12:12:00,
2013-01-18 04:22:00,35.0,34.0,-100.00,SSW,200,2.0,-999.0,98,0.00,,,-99.99,,2013-01-18 12:22:00,
2013-01-18 04:30:00,34.0,34.0,-100.00,South,187,2.0,-999.0,99,0.00,,,-99.99,,2013-01-18 12:30:00,
2013-01-18 04:53:00,34.0,34.0,-100.00,South,187,2.0,-999.0,99,0.00,,,-99.99,,2013-01-18 12:53:00,
2013-01-18 05:02:00,34.0,34.0,-100.00,South,187,2.0,-999.0,99,0.00,,,-99.99,,2013-01-18 13:02:00,
2013-01-18 05:12:00,34.0,34.0,-100.00,South,187,2.0,-999.0,99,0.00,,,-99.99,,2013-01-18 13:12:00,
2013-01-18 05:22:00,34.0,34.0,-100.00,South,187,2.0,-999.0,99,0.00,,,-99.99,,2013-01-18 13:22:00,
2013-01-18 05:30:00,34.0,33.0,-100.00,SSW,193,2.0,-999.0,99,0.00,,,-99.99,,2013-01-18 13:30:00,
2013-01-18 05:53:00,34.0,33.0,-100.00,SSW,193,2.0,-999.0,99,0.00,,,-99.99,,2013-01-18 13:53:00,
2013-01-18 06:03:00,34.0,33.0,-100.00,SSW,193,2.0,-999.0,99,0.00,,,-99.99,,2013-01-18 14:03:00,
2013-01-18 06:12:00,34.0,33.0,-100.00,SSW,193,2.0,-999.0,99,0.00,,,-99.99,,2013-01-18 14:12:00,
2013-01-18 06:22:00,34.0,33.0,-100.00,SSW,193,2.0,-999.0,99,0.00,,,-99.99,,2013-01-18 14:22:00,
2013-01-18 06:30:00,33.0,33.0,-100.00,SSW,198,2.0,-999.0,99,0.00,,,-99.99,,2013-01-18 14:30:00,
2013-01-18 06:53:00,33.0,33.0,-100.00,SSW,198,2.0,-999.0,99,0.00,,,-99.99,,2013-01-18 14:53:00,
2013-01-18 07:03:00,33.0,33.0,-100.00,SSW,198,2.0,-999.0,99,0.00,,,-99.99,,2013-01-18 15:03:00,
2013-01-18 07:12:00,33.0,33.0,-100.00,SSW,198,2.0,-999.0,99,0.00,,,-99.99,,2013-01-18 15:12:00,
2013-01-18 07:22:00,33.0,33.0,-100.00,SSW,198,2.0,-999.0,99,0.00,,,-99.99,,2013-01-18 15:22:00,
2013-01-18 07:30:00,32.0,32.0,-100.00,SSW,210,2.0,-999.0,99,0.00,,,-99.99,,2013-01-18 15:30:00,
2013-01-18 07:53:00,32.0,32.0,-100.00,SSW,210,2.0,-999.0,99,0.00,,,-99.99,,2013-01-18 15:53:00,
2013-01-18 08:02:00,32.0,32.0,-100.00,SSW,210,2.0,-999.0,99,0.00,,,-99.99,,2013-01-18 16:02:00,
2013-01-18 08:12:00,32.0,32.0,-100.00,SSW,210,2.0,-999.0,99,0.00,,,-99.99,,2013-01-18 16:12:00,
2013-01-18 08:22:00,32.0,32.0,-100.00,SSW,210,2.0,-999.0,99,0.00,,,-99.99,,2013-01-18 16:22:00,
2013-01-18 08:30:00,32.0,32.0,-100.00,South,184,1.0,-999.0,100,0.00,,,-99.99,,2013-01-18 16:30:00,
2013-01-18 08:53:00,32.0,32.0,-100.00,South,184,1.0,-999.0,100,0.00,,,-99.99,,2013-01-18 16:53:00,
2013-01-18 09:02:00,32.0,32.0,-100.00,South,184,1.0,-999.0,100,0.00,,,-99.99,,2013-01-18 17:02:00,
2013-01-18 09:12:00,32.0,32.0,-100.00,South,184,1.0,-999.0,100,0.00,,,-99.99,,2013-01-18 17:12:00,
2013-01-18 09:22:00,32.0,32.0,-100.00,South,184,1.0,-999.0,100,0.00,,,-99.99,,2013-01-18 17:22:00,
2013-01-18 09:30:00,36.0,35.0,-100.00,South,174,0.0,-999.0,98,0.00,,,-99.99,,2013-01-18 17:30:00,
2013-01-18 09:53:00,36.0,35.0,-100.00,South,174,0.0,-999.0,98,0.00,,,-99.99,,2013-01-18 17:53:00,
2013-01-18 10:03:00,36.0,35.0,-100.00,South,174,0.0,-999.0,98,0.00,,,-99.99,,2013-01-18 18:03:00,
2013-01-18 10:12:00,36.0,35.0,-100.00,South,174,0.0,-999.0,98,0.00,,,-99.99,,2013-01-18 18:12:00,
2013-01-18 10:23:00,36.0,35.0,-100.00,South,174,0.0,-999.0,98,0.00,,,-99.99,,2013-01-18 18:23:00,
2013-01-18 10:30:00,40.0,39.0,-100.00,ENE,60,1.0,-999.0,94,0.00,,,-99.99,,2013-01-18 18:30:00,
2013-01-18 10:53:00,40.0,39.0,-100.00,ENE,60,1.0,-999.0,94,0.00,,,-99.99,,2013-01-18 18:53:00,
2013-01-18 11:02:00,40.0,39.0,-100.00,ENE,60,1.0,-999.0,94,0.00,,,-99.99,,2013-01-18 19:02:00,
2013-01-18 11:12:00,40.0,39.0,-100.00,ENE,60,1.0,-999.0,94,0.00,,,-99.99,,2013-01-18 19:12:00,
2013-01-18 11:22:00,40.0,39.0,-100.00,ENE,60,1.0,-999.0,94,0.00,,,-99.99,,2013-01-18 19:22:00,
2013-01-18 11:30:00,41.0,39.0,-100.00,NNE,15,5.0,-999.0,92,0.00,,,-99.99,,2013-01-18 19:30:00,
2013-01-18 11:53:00,41.0,39.0,-100.00,NNE,15,5.0,-999.0,92,0.00,,,-99.99,,2013-01-18 19:53:00,
2013-01-18 12:03:00,41.0,39.0,-100.00,NNE,15,5.0,-999.0,92,0.00,,,-99.99,,2013-01-18 20:03:00,
2013-01-18 12:12:00,41.0,39.0,-100.00,NNE,15,5.0,-999.0,92,0.00,,,-99.99,,2013-01-18 20:12:00,
2013-01-18 12:22:00,41.0,39.0,-100.00,NNE,15,5.0,-999.0,92,0.00,,,-99.99,,2013-01-18 20:22:00,
2013-01-18 12:30:00,43.0,40.0,-100.00,North,7,4.0,-999.0,92,0.00,,,-99.99,,2013-01-18 20:30:00,
2013-01-18 12:53:00,43.0,40.0,-100.00,North,7,4.0,-999.0,92,0.00,,,-99.99,,2013-01-18 20:53:00,
2013-01-18 13:03:00,43.0,40.0,-100.00,North,7,4.0,-999.0,92,0.00,,,-99.99,,2013-01-18 21:03:00,
2013-01-18 13:12:00,43.0,40.0,-100.00,North,7,4.0,-999.0,92,0.00,,,-99.99,,2013-01-18 21:12:00,
2013-01-18 13:22:00,43.0,40.0,-100.00,North,7,4.0,-999.0,92,0.00,,,-99.99,,2013-01-18 21:22:00,
2013-01-18 13:30:00,42.0,41.0,-100.00,NNE,18,5.0,-999.0,94,0.00,,,-99.99,,2013-01-18 21:30:00,
2013-01-18 13:53:00,42.0,41.0,-100.00,NNE,18,5.0,-999.0,94,0.00,,,-99.99,,2013-01-18 21:53:00,
2013-01-18 14:02:00,42.0,41.0,-100.00,NNE,18,5.0,-999.0,94,0.00,,,-99.99,,2013-01-18 22:02:00,
2013-01-18 14:53:00,42.0,41.0,-100.00,NNE,26,2.0,-999.0,96,0.00,,,-99.99,,2013-01-18 22:53:00,
2013-01-18 15:30:00,42.0,41.0,-100.00,NNE,21,2.0,-999.0,96,0.00,,,-99.99,,2013-01-18 23:30:00,
2013-01-18 15:53:00,42.0,41.0,-100.00,NNE,21,2.0,-999.0,96,0.00,,,-99.99,,2013-01-18 23:53:00,
2013-01-18 16:02:00,42.0,41.0,-100.00,NNE,21,2.0,-999.0,96,0.00,,,-99.99,,2013-01-19 00:02:00,
2013-01-18 16:12:00,42.0,41.0,-100.00,NNE,21,2.0,-999.0,96,0.00,,,-99.99,,2013-01-19 00:12:00,
2013-01-18 16:22:00,42.0,41.0,-100.00,NNE,21,2.0,-999.0,96,0.00,,,-99.99,,2013-01-19 00:22:00,
2013-01-18 16:30:00,42.0,41.0,-100.00,NNE,14,2.0,-999.0,96,0.00,,,-99.99,,2013-01-19 00:30:00,
2013-01-18 16:53:00,42.0,41.0,-100.00,NNE,14,2.0,-999.0,96,0.00,,,-99.99,,2013-01-19 00:53:00,
2013-01-18 17:02:00,42.0,41.0,-100.00,NNE,14,2.0,-999.0,96,0.00,,,-99.99,,2013-01-19 01:02:00,
2013-01-18 17:12:00,42.0,41.0,-100.00,NNE,14,2.0,-999.0,96,0.00,,,-99.99,,2013-01-19 01:12:00,
2013-01-18 17:22:00,42.0,41.0,-100.00,NNE,14,2.0,-999.0,96,0.00,,,-99.99,,2013-01-19 01:22:00,
2013-01-18 17:30:00,42.0,41.0,-100.00,NNE,14,2.0,-999.0,97,0.00,,,-99.99,,2013-01-19 01:30:00,
2013-01-18 17:52:00,42.0,41.0,-100.00,NNE,14,2.0,-999.0,97,0.00,,,-99.99,,2013-01-19 01:52:00,
2013-01-18 18:02:00,42.0,41.0,-100.00,NNE,14,2.0,-999.0,97,0.00,,,-99.99,,2013-01-19 02:02:00,
2013-01-18 18:12:00,42.0,41.0,-100.00,NNE,14,2.0,-999.0,97,0.00,,,-99.99,,2013-01-19 02:12:00,
2013-01-18 18:22:00,42.0,41.0,-100.00,NNE,14,2.0,-999.0,97,0.00,,,-99.99,,2013-01-19 02:22:00,
2013-01-18 18:30:00,41.0,41.0,-100.00,NW,326,1.0,-999.0,98,0.00,,,-99.99,,2013-01-19 02:30:00,
2013-01-18 18:53:00,41.0,41.0,-100.00,NW,326,1.0,-999.0,98,0.00,,,-99.99,,2013-01-19 02:53:00,
2013-01-18 19:02:00,41.0,41.0,-100.00,NW,326,1.0,-999.0,98,0.00,,,-99.99,,2013-01-19 03:02:00,
2013-01-18 19:12:00,41.0,41.0,-100.00,NW,326,1.0,-999.0,98,0.00,,,-99.99,,2013-01-19 03:12:00,
2013-01-18 19:22:00,41.0,41.0,-100.00,NW,326,1.0,-999.0,98,0.00,,,-99.99,,2013-01-19 03:22:00,
2013-01-18 19:30:00,41.0,40.0,-100.00,ENE,73,0.0,-999.0,98,0.00,,,-99.99,,2013-01-19 03:30:00,
2013-01-18 19:52:00,41.0,40.0,-100.00,ENE,73,0.0,-999.0,98,0.00,,,-99.99,,2013-01-19 03:52:00,
2013-01-18 20:02:00,41.0,40.0,-100.00,ENE,73,0.0,-999.0,98,0.00,,,-99.99,,2013-01-19 04:02:00,
2013-01-18 20:12:00,41.0,40.0,-100.00,ENE,73,0.0,-999.0,98,0.00,,,-99.99,,2013-01-19 04:12:00,
2013-01-18 20:22:00,41.0,40.0,-100.00,ENE,73,0.0,-999.0,98,0.00,,,-99.99,,2013-01-19 04:22:00,
2013-01-18 20:30:00,40.0,40.0,-100.00,East,92,0.0,-999.0,98,0.00,,,-99.99,,2013-01-19 04:30:00,
2013-01-18 20:53:00,40.0,40.0,-100.00,East,92,0.0,-999.0,98,0.00,,,-99.99,,2013-01-19 04:53:00,
2013-01-18 21:03:00,40.0,40.0,-100.00,East,92,0.0,-999.0,98,0.00,,,-99.99,,2013-01-19 05:03:00,
2013-01-18 21:12:00,40.0,40.0,-100.00,East,92,0.0,-999.0,98,0.00,,,-99.99,,2013-01-19 05:12:00,
2013-01-18 21:22:00,40.0,40.0,-100.00,East,92,0.0,-999.0,98,0.00,,,-99.99,,2013-01-19 05:22:00,
2013-01-18 21:30:00,40.0,39.0,-100.00,ENE,78,1.0,-999.0,98,0.00,,,-99.99,,2013-01-19 05:30:00,
2013-01-18 21:53:00,40.0,39.0,-100.00,ENE,78,1.0,-999.0,98,0.00,,,-99.99,,2013-01-19 05:53:00,
2013-01-18 22:02:00,40.0,39.0,-100.00,ENE,78,1.0,-999.0,98,0.00,,,-99.99,,2013-01-19 06:02:00,
2013-01-18 22:12:00,40.0,39.0,-100.00,ENE,78,1.0,-999.0,98,0.00,,,-99.99,,2013-01-19 06:12:00,
2013-01-18 22:22:00,40.0,39.0,-100.00,ENE,78,1.0,-999.0,98,0.00,,,-99.99,,2013-01-19 06:22:00,
2013-01-18 22:30:00,38.0,38.0,-100.00,East,93,1.0,-999.0,99,0.00,,,-99.99,,2013-01-19 06:30:00,
2013-01-18 22:53:00,38.0,38.0,-100.00,East,93,1.0,-999.0,99,0.00,,,-99.99,,2013-01-19 06:53:00,
2013-01-18 23:02:00,38.0,38.0,-100.00,East,93,1.0,-999.0,99,0.00,,,-99.99,,2013-01-19 07:02:00,
2013-01-18 23:12:00,38.0,38.0,-100.00,East,93,1.0,-999.0,99,0.00,,,-99.99,,2013-01-19 07:12:00,
2013-01-18 23:22:00,38.0,38.0,-100.00,East,93,1.0,-999.0,99,0.00,,,-99.99,,2013-01-19 07:22:00,
2013-01-18 23:30:00,36.0,36.0,-100.00,SSE,164,1.0,-999.0,99,0.00,,,-99.99,,2013-01-19 07:30:00,
2013-01-18 23:52:00,36.0,36.0,-100.00,SSE,164,1.0,-999.0,99,0.00,,,-99.99,,2013-01-19 07:52:00,